createdAt,value
2019-04-14T00:02:45.400Z,28.60
2019-04-14T00:05:16.901Z,27.97
2019-04-14T00:07:47.241Z,28.80
2019-04-14T00:10:18.891Z,26.90
2019-04-14T00:12:49.516Z,26.80
2019-04-14T00:15:29.344Z,26.80
2019-04-14T00:17:52.610Z,27.10
2019-04-14T00:20:23.003Z,26.80
2019-04-14T00:22:53.411Z,26.37
2019-04-14T00:25:24.006Z,25.67
2019-04-14T00:27:54.425Z,26.10
2019-04-14T00:30:25.220Z,25.40
2019-04-14T00:32:59.501Z,26.87
2019-04-14T00:35:36.415Z,26.62
2019-04-14T00:38:45.522Z,29.37
2019-04-14T00:41:47.247Z,29.30
2019-04-14T00:44:41.102Z,28.80
2019-04-14T00:47:16.400Z,28.00
2019-04-14T00:49:47.090Z,25.97
2019-04-14T00:52:18.872Z,25.33
2019-04-14T00:54:50.047Z,24.80
2019-04-14T00:57:20.310Z,25.10
2019-04-14T00:59:50.938Z,24.90
2019-04-14T01:02:21.535Z,21.93
2019-04-14T01:04:53.316Z,22.63
2019-04-14T01:07:24.153Z,20.20
2019-04-14T01:09:55.376Z,21.40
2019-04-14T01:12:25.863Z,20.70
2019-04-14T01:14:56.147Z,20.97
2019-04-14T01:17:26.620Z,23.35
2019-04-14T01:19:56.996Z,22.13
2019-04-14T01:22:29.260Z,21.90
2019-04-14T01:25:00.005Z,21.03
2019-04-14T01:27:32.026Z,21.60
2019-04-14T01:30:02.659Z,21.37
2019-04-14T01:32:33.200Z,20.33
2019-04-14T01:35:03.375Z,19.37
2019-04-14T01:37:33.826Z,20.90
2019-04-14T01:40:05.219Z,20.23
2019-04-14T01:42:35.776Z,20.50
2019-04-14T01:45:07.943Z,21.70
2019-04-14T01:47:39.948Z,20.85
2019-04-14T01:50:10.612Z,23.20
2019-04-14T01:53:05.773Z,21.13
2019-04-14T01:55:46.668Z,21.97
2019-04-14T01:58:23.031Z,21.17
2019-04-14T02:01:12.772Z,21.87
2019-04-14T02:03:43.321Z,21.67
2019-04-14T02:06:13.995Z,22.10
2019-04-14T02:08:44.226Z,23.07
2019-04-14T02:11:15.849Z,24.90
2019-04-14T02:13:46.584Z,23.33
2019-04-14T02:16:25.966Z,23.80
2019-04-14T02:18:51.764Z,22.47
2019-04-14T02:21:21.624Z,22.80
2019-04-14T02:23:51.949Z,24.37
2019-04-14T02:26:22.421Z,23.40
2019-04-14T02:28:52.900Z,23.13
2019-04-14T02:31:45.371Z,25.33
2019-04-14T02:34:28.328Z,25.63
2019-04-14T02:36:58.683Z,26.17
2019-04-14T02:39:33.819Z,23.60
2019-04-14T02:44:51.630Z,24.33
2019-04-14T02:49:34.996Z,25.00
2019-04-14T02:52:11.977Z,23.40
2019-04-14T02:54:51.771Z,23.80
2019-04-14T02:57:16.794Z,25.30
2019-04-14T02:59:45.161Z,23.60
2019-04-14T03:04:50.949Z,22.80
2019-04-14T03:12:39.671Z,25.90
2019-04-14T03:15:08.984Z,25.80
2019-04-14T03:18:00.524Z,26.00
2019-04-14T03:20:47.636Z,24.90
2019-04-14T03:23:34.817Z,25.70
2019-04-14T03:26:04.873Z,25.43
2019-04-14T03:28:51.426Z,24.97
2019-04-14T03:37:18.540Z,26.80
2019-04-14T03:44:11.816Z,26.10
2019-04-14T03:51:43.177Z,23.03
2019-04-14T03:53:59.122Z,26.20
2019-04-14T03:56:55.640Z,27.27
2019-04-14T03:59:28.198Z,25.60
2019-04-14T04:01:58.733Z,27.00
2019-04-14T04:04:29.432Z,23.70
2019-04-14T04:06:59.752Z,24.80
2019-04-14T04:09:43.885Z,26.53
2019-04-14T04:12:14.050Z,26.43
2019-04-14T04:14:44.295Z,26.73
2019-04-14T04:17:34.202Z,25.70
2019-04-14T04:20:27.090Z,27.00
2019-04-14T04:23:16.184Z,26.47
2019-04-14T04:25:55.100Z,25.27
2019-04-14T04:28:52.346Z,25.77
2019-04-14T04:31:39.498Z,25.80
2019-04-14T04:34:44.562Z,26.20
2019-04-14T04:37:34.561Z,27.47
2019-04-14T04:40:11.389Z,25.57
2019-04-14T04:42:41.686Z,31.17
2019-04-14T04:45:12.795Z,28.37
2019-04-14T04:47:43.195Z,28.23
2019-04-14T04:50:13.387Z,31.13
2019-04-14T04:52:43.590Z,30.30
2019-04-14T04:55:13.834Z,31.70
2019-04-14T04:57:44.006Z,31.17
2019-04-14T05:00:15.608Z,31.37
2019-04-14T05:02:46.335Z,31.50
2019-04-14T05:05:53.581Z,31.90
2019-04-14T05:08:24.194Z,29.83
2019-04-14T05:11:03.754Z,30.40
2019-04-14T05:13:40.235Z,30.47
2019-04-14T05:16:10.809Z,31.20
2019-04-14T05:18:41.907Z,29.23
2019-04-14T05:21:12.720Z,28.07
2019-04-14T05:23:43.217Z,27.70
2019-04-14T05:26:13.457Z,31.43
2019-04-14T05:28:43.817Z,28.80
2019-04-14T05:31:14.306Z,29.00
2019-04-14T05:33:44.895Z,31.90
2019-04-14T05:36:15.330Z,30.20
2019-04-14T05:38:45.520Z,30.00
2019-04-14T05:41:15.938Z,30.10
2019-04-14T05:43:52.056Z,30.03
2019-04-14T05:46:18.612Z,28.85
2019-04-14T05:48:49.228Z,33.93
2019-04-14T05:51:21.689Z,38.80
2019-04-14T05:53:52.375Z,45.47
2019-04-14T05:56:23.134Z,43.30
2019-04-14T05:58:53.670Z,37.20
2019-04-14T06:01:24.805Z,37.40
2019-04-14T06:03:56.091Z,38.13
2019-04-14T06:06:26.572Z,38.28
2019-04-14T06:08:56.758Z,35.40
2019-04-14T06:11:26.971Z,33.70
2019-04-14T06:13:57.642Z,35.00
2019-04-14T06:16:28.041Z,33.63
2019-04-14T06:18:58.281Z,31.23
2019-04-14T06:21:28.530Z,32.60
2019-04-14T06:23:58.828Z,30.77
2019-04-14T06:26:29.215Z,31.57
2019-04-14T06:28:59.395Z,29.23
2019-04-14T06:31:47.870Z,28.53
2019-04-14T06:34:36.312Z,28.80
2019-04-14T06:37:31.521Z,31.00
2019-04-14T06:40:02.538Z,29.53
2019-04-14T06:42:32.774Z,26.77
2019-04-14T06:45:03.326Z,28.23
2019-04-14T06:47:33.856Z,25.70
2019-04-14T06:50:04.371Z,28.27
2019-04-14T06:52:35.005Z,28.87
2019-04-14T06:55:05.501Z,28.47
2019-04-14T06:57:35.772Z,35.50
2019-04-14T07:00:06.512Z,30.63
2019-04-14T07:02:36.884Z,28.93
2019-04-14T07:05:07.457Z,27.50
2019-04-14T07:07:37.723Z,28.65
2019-04-14T07:10:08.351Z,28.17
2019-04-14T07:12:38.633Z,29.27
2019-04-14T07:15:09.022Z,29.20
2019-04-14T07:17:39.302Z,27.83
2019-04-14T07:20:09.564Z,27.10
2019-04-14T07:22:40.065Z,28.87
2019-04-14T07:25:10.888Z,30.97
2019-04-14T07:27:42.228Z,29.87
2019-04-14T07:30:32.621Z,28.67
2019-04-14T07:33:20.594Z,28.10
2019-04-14T07:36:08.487Z,28.23
2019-04-14T07:38:48.905Z,28.90
2019-04-14T07:41:33.458Z,28.97
2019-04-14T07:44:16.894Z,28.25
2019-04-14T07:47:04.766Z,30.63
2019-04-14T07:49:54.997Z,28.23
2019-04-14T07:52:44.660Z,27.40
2019-04-14T07:55:33.245Z,28.20
2019-04-14T07:58:30.845Z,27.93
2019-04-14T08:01:25.792Z,29.13
2019-04-14T08:04:06.596Z,28.63
2019-04-14T08:06:38.496Z,28.70
2019-04-14T08:09:09.302Z,29.10
2019-04-14T08:11:39.898Z,29.03
2019-04-14T08:14:10.208Z,27.90
2019-04-14T08:16:40.637Z,28.90
2019-04-14T08:19:11.572Z,29.60
2019-04-14T08:21:42.023Z,27.80
2019-04-14T08:24:12.355Z,26.80
2019-04-14T08:26:42.883Z,28.70
2019-04-14T08:29:13.382Z,26.90
2019-04-14T08:31:43.703Z,29.17
2019-04-14T08:34:13.971Z,26.80
2019-04-14T08:36:44.409Z,26.77
2019-04-14T08:39:15.224Z,28.50
2019-04-14T08:42:03.147Z,28.20
2019-04-14T08:44:45.172Z,29.00
2019-04-14T08:47:45.680Z,27.60
2019-04-14T08:50:39.441Z,27.80
2019-04-14T08:53:28.426Z,26.93
2019-04-14T08:56:16.335Z,31.73
2019-04-14T08:59:05.678Z,28.53
2019-04-14T09:01:42.174Z,30.93
2019-04-14T09:04:20.707Z,25.77
2019-04-14T09:06:59.537Z,27.90
2019-04-14T09:09:55.459Z,28.40
2019-04-14T09:12:28.120Z,28.10
2019-04-14T09:14:58.839Z,27.90
2019-04-14T09:17:30.855Z,28.90
2019-04-14T09:20:03.745Z,28.40
2019-04-14T09:22:34.327Z,28.20
2019-04-14T09:25:08.146Z,30.67
2019-04-14T09:27:38.729Z,28.23
2019-04-14T09:30:09.652Z,25.93
2019-04-14T09:32:39.989Z,28.27
2019-04-14T09:35:10.339Z,31.43
2019-04-14T09:37:40.618Z,28.50
2019-04-14T09:40:11.377Z,29.13
2019-04-14T09:42:41.676Z,29.00
2019-04-14T09:45:12.181Z,29.40
2019-04-14T09:47:42.681Z,28.80
2019-04-14T09:50:14.506Z,27.50
2019-04-14T09:52:44.852Z,31.00
2019-04-14T09:55:15.361Z,28.37
2019-04-14T09:57:45.779Z,28.47
2019-04-14T10:00:17.318Z,29.20
2019-04-14T10:02:47.948Z,27.10
2019-04-14T10:05:18.414Z,27.07
2019-04-14T10:07:49.005Z,29.20
2019-04-14T10:10:19.550Z,32.40
2019-04-14T10:12:53.363Z,28.20
2019-04-14T10:15:24.412Z,26.80
2019-04-14T10:17:54.733Z,28.70
2019-04-14T10:20:25.247Z,27.87
2019-04-14T10:22:55.825Z,26.40
2019-04-14T10:25:26.186Z,27.30
2019-04-14T10:27:56.465Z,26.43
2019-04-14T10:30:27.207Z,26.20
2019-04-14T10:32:57.730Z,25.97
2019-04-14T10:35:28.524Z,26.97
2019-04-14T10:37:59.255Z,31.77
2019-04-14T10:40:30.074Z,28.47
2019-04-14T10:43:00.494Z,26.23
2019-04-14T10:45:32.119Z,26.57
2019-04-14T10:48:02.630Z,29.23
2019-04-14T10:50:33.073Z,25.83
2019-04-14T10:53:03.897Z,25.50
2019-04-14T10:55:34.176Z,27.20
2019-04-14T10:58:05.354Z,26.65
2019-04-14T11:00:38.751Z,26.80
2019-04-14T11:03:09.504Z,27.33
2019-04-14T11:05:57.111Z,24.20
2019-04-14T11:08:27.627Z,26.47
2019-04-14T11:10:58.152Z,26.90
2019-04-14T11:13:28.339Z,27.07
2019-04-14T11:15:58.527Z,25.63
2019-04-14T11:18:29.320Z,26.00
2019-04-14T11:21:00.604Z,25.70
2019-04-14T11:23:32.583Z,26.48
2019-04-14T11:26:03.140Z,24.40
2019-04-14T11:28:34.984Z,25.57
2019-04-14T11:31:05.473Z,25.93
2019-04-14T11:33:53.368Z,24.60
2019-04-14T11:36:43.167Z,25.10
2019-04-14T11:39:14.896Z,24.17
2019-04-14T11:41:45.299Z,25.83
2019-04-14T11:44:15.900Z,23.53
2019-04-14T11:46:46.333Z,27.07
2019-04-14T11:49:16.854Z,24.02
2019-04-14T11:51:55.132Z,26.30
2019-04-14T11:54:19.885Z,26.27
2019-04-14T11:56:50.512Z,24.30
2019-04-14T11:59:28.202Z,25.50
2019-04-14T12:02:11.585Z,26.30
2019-04-14T12:04:55.110Z,28.60
2019-04-14T12:08:03.666Z,29.63
2019-04-14T12:10:34.877Z,25.60
2019-04-14T12:13:05.650Z,25.50
2019-04-14T12:15:36.716Z,25.37
2019-04-14T12:18:07.772Z,24.60
2019-04-14T12:20:38.109Z,23.17
2019-04-14T12:23:08.464Z,23.67
2019-04-14T12:25:39.248Z,24.13
2019-04-14T12:28:09.781Z,27.20
2019-04-14T12:30:40.375Z,24.40
2019-04-14T12:33:10.822Z,25.43
2019-04-14T12:35:43.551Z,25.50
2019-04-14T12:38:13.885Z,26.37
2019-04-14T12:40:44.419Z,25.07
2019-04-14T12:43:40.128Z,25.53
2019-04-14T12:46:29.764Z,27.07
2019-04-14T12:49:11.304Z,25.23
2019-04-14T12:52:01.082Z,25.07
2019-04-14T12:54:32.515Z,27.40
2019-04-14T12:57:02.829Z,27.40
2019-04-14T12:59:35.560Z,28.03
2019-04-14T13:02:14.090Z,25.73
2019-04-14T13:04:44.347Z,26.83
2019-04-14T13:07:14.786Z,25.03
2019-04-14T13:09:45.623Z,25.83
2019-04-14T13:12:15.798Z,26.23
2019-04-14T13:14:46.409Z,25.00
2019-04-14T13:17:16.987Z,22.77
2019-04-14T13:19:47.948Z,24.73
2019-04-14T13:22:18.360Z,25.00
2019-04-14T13:24:49.434Z,25.80
2019-04-14T13:27:19.867Z,26.20
2019-04-14T13:29:50.978Z,25.93
2019-04-14T13:32:21.646Z,26.40
2019-04-14T13:34:52.310Z,26.00
2019-04-14T13:37:22.787Z,26.10
2019-04-14T13:39:53.550Z,26.83
2019-04-14T13:42:24.081Z,25.00
2019-04-14T13:44:54.610Z,27.73
2019-04-14T13:47:25.433Z,25.17
2019-04-14T13:49:56.240Z,24.27
2019-04-14T13:52:26.851Z,24.70
2019-04-14T13:54:57.621Z,24.73
2019-04-14T13:57:28.769Z,23.93
2019-04-14T14:00:00.142Z,23.10
2019-04-14T14:02:30.472Z,22.83
2019-04-14T14:05:01.422Z,21.00
2019-04-14T14:07:31.874Z,20.27
2019-04-14T14:10:02.720Z,20.27
2019-04-14T14:12:42.100Z,19.50
2019-04-14T14:15:32.382Z,18.03
2019-04-14T14:18:20.963Z,16.87
2019-04-14T14:21:02.135Z,17.33
2019-04-14T14:23:51.167Z,17.53
2019-04-14T14:26:23.624Z,16.33
2019-04-14T14:28:54.299Z,18.27
2019-04-14T14:31:25.080Z,16.93
2019-04-14T14:33:55.483Z,17.23
2019-04-14T14:36:25.896Z,15.90
2019-04-14T14:38:56.521Z,17.40
2019-04-14T14:41:27.183Z,15.17
2019-04-14T14:43:58.033Z,16.33
2019-04-14T14:47:06.260Z,15.20
2019-04-14T14:49:53.168Z,15.47
2019-04-14T14:52:23.863Z,14.20
2019-04-14T14:54:54.371Z,13.77
2019-04-14T14:57:24.857Z,14.43
2019-04-14T14:59:55.460Z,15.93
2019-04-14T15:02:26.841Z,15.97
2019-04-14T15:04:57.473Z,16.67
2019-04-14T15:07:28.581Z,17.90
2019-04-14T15:09:58.944Z,17.77
2019-04-14T15:12:29.837Z,17.77
2019-04-14T15:15:00.381Z,17.57
2019-04-14T15:17:31.254Z,16.40
2019-04-14T15:20:01.929Z,16.77
2019-04-14T15:22:32.980Z,17.27
2019-04-14T15:25:03.492Z,15.27
2019-04-14T15:27:34.102Z,16.47
2019-04-14T15:30:06.809Z,16.90
2019-04-14T15:32:37.329Z,102.83
2019-04-14T15:35:09.113Z,16.40
2019-04-14T15:37:39.948Z,16.77
2019-04-14T15:40:10.953Z,16.10
2019-04-14T15:42:42.109Z,15.27
2019-04-14T15:45:14.172Z,16.53
2019-04-14T15:47:44.699Z,16.03
2019-04-14T15:50:15.770Z,15.23
2019-04-14T15:52:46.378Z,17.03
2019-04-14T15:55:18.078Z,17.93
2019-04-14T15:58:07.732Z,16.17
2019-04-14T16:00:46.735Z,15.67
2019-04-14T16:03:39.109Z,15.33
2019-04-14T16:06:17.094Z,16.07
2019-04-14T16:08:57.498Z,16.43
2019-04-14T16:11:45.938Z,15.98
2019-04-14T16:14:38.056Z,16.07
2019-04-14T16:17:26.478Z,15.93
2019-04-14T16:20:02.000Z,17.00
2019-04-14T16:22:39.007Z,14.33
2019-04-14T16:25:10.287Z,13.87
2019-04-14T16:28:18.034Z,15.63
2019-04-14T16:31:14.992Z,13.90
2019-04-14T16:34:04.001Z,14.10
2019-04-14T16:36:35.104Z,13.80
2019-04-14T16:39:08.067Z,13.67
2019-04-14T16:41:39.918Z,12.70
2019-04-14T16:44:10.658Z,12.37
2019-04-14T16:46:41.473Z,12.43
2019-04-14T16:49:12.168Z,12.77
2019-04-14T16:52:03.132Z,12.93
2019-04-14T16:54:59.347Z,12.90
2019-04-14T16:57:47.817Z,13.30
2019-04-14T17:00:29.759Z,12.73
2019-04-14T17:03:00.383Z,12.27
2019-04-14T17:05:30.879Z,12.60
2019-04-14T17:08:01.612Z,12.10
2019-04-14T17:10:32.189Z,12.40
2019-04-14T17:13:04.079Z,11.77
2019-04-14T17:15:53.410Z,11.97
2019-04-14T17:18:49.801Z,12.90
2019-04-14T17:21:48.229Z,12.03
2019-04-14T17:24:37.739Z,13.57
2019-04-14T17:27:28.557Z,10.93
2019-04-14T17:30:25.268Z,11.23
2019-04-14T17:33:17.239Z,11.13
2019-04-14T17:36:06.672Z,12.37
2019-04-14T17:38:58.775Z,12.80
2019-04-14T17:41:38.725Z,9.77
2019-04-14T17:44:19.130Z,10.70
2019-04-14T17:47:24.430Z,11.50
2019-04-14T17:50:09.367Z,10.60
2019-04-14T17:52:43.321Z,11.20
2019-04-14T17:55:49.889Z,11.20
2019-04-14T17:58:28.263Z,11.33
2019-04-14T18:01:06.232Z,12.43
2019-04-14T18:03:55.778Z,11.80
2019-04-14T18:06:42.490Z,13.47
2019-04-14T18:09:38.139Z,17.03
2019-04-14T18:12:17.352Z,16.63
2019-04-14T18:15:19.028Z,18.60
2019-04-14T18:18:11.549Z,14.73
2019-04-14T18:20:47.511Z,14.37
2019-04-14T18:23:18.093Z,13.73
2019-04-14T18:25:50.456Z,13.97
2019-04-14T18:28:55.428Z,13.67
2019-04-14T18:31:47.597Z,13.90
2019-04-14T18:34:45.736Z,13.00
2019-04-14T18:37:26.372Z,12.77
2019-04-14T18:40:16.278Z,12.03
2019-04-14T18:43:20.467Z,13.20
2019-04-14T18:45:57.161Z,13.37
2019-04-14T18:48:58.824Z,11.13
2019-04-14T18:51:47.746Z,12.30
2019-04-14T18:54:37.305Z,12.53
2019-04-14T18:57:27.140Z,14.00
2019-04-14T19:00:19.030Z,13.90
2019-04-14T19:02:49.827Z,14.00
2019-04-14T19:05:21.019Z,13.60
2019-04-14T19:07:51.746Z,15.60
2019-04-14T19:10:23.760Z,14.50
2019-04-14T19:13:03.644Z,13.90
2019-04-14T19:15:43.720Z,14.57
2019-04-14T19:18:25.855Z,13.83
2019-04-14T19:21:27.903Z,13.40
2019-04-14T19:23:58.610Z,13.30
2019-04-14T19:26:29.445Z,13.57
2019-04-14T19:29:00.264Z,12.87
2019-04-14T19:31:30.762Z,13.33
2019-04-14T19:34:01.650Z,13.90
2019-04-14T19:36:32.599Z,12.67
2019-04-14T19:39:04.860Z,13.10
2019-04-14T19:41:36.442Z,13.90
2019-04-14T19:44:06.963Z,13.80
2019-04-14T19:46:37.787Z,12.70
2019-04-14T19:49:08.419Z,12.37
2019-04-14T19:51:42.065Z,13.53
2019-04-14T19:54:15.670Z,14.50
2019-04-14T19:56:49.761Z,13.23
2019-04-14T19:59:20.318Z,14.47
2019-04-14T20:01:50.735Z,13.40
2019-04-14T20:04:21.945Z,13.83
2019-04-14T20:06:53.415Z,14.87
2019-04-14T20:09:24.214Z,14.53
2019-04-14T20:11:55.075Z,13.97
2019-04-14T20:14:25.583Z,15.77
2019-04-14T20:17:07.918Z,14.03
2019-04-14T20:20:08.774Z,14.70
2019-04-14T20:22:50.617Z,15.63
2019-04-14T20:25:33.835Z,14.50
2019-04-14T20:28:32.261Z,14.47
2019-04-14T20:31:22.264Z,15.43
2019-04-14T20:33:54.141Z,12.97
2019-04-14T20:36:27.753Z,13.73
2019-04-14T20:38:58.190Z,12.87
2019-04-14T20:41:28.586Z,15.23
2019-04-14T20:44:01.727Z,13.90
2019-04-14T20:46:31.294Z,14.13
2019-04-14T20:49:03.055Z,13.77
2019-04-14T20:51:33.653Z,13.60
2019-04-14T20:54:04.173Z,14.00
2019-04-14T20:56:36.008Z,13.53
2019-04-14T20:59:06.567Z,15.87
2019-04-14T21:01:40.238Z,16.07
2019-04-14T21:04:33.045Z,13.40
2019-04-14T21:07:30.804Z,13.43
2019-04-14T21:10:27.139Z,14.27
2019-04-14T21:13:16.680Z,14.27
2019-04-14T21:15:51.065Z,13.27
2019-04-14T21:18:39.644Z,13.63
2019-04-14T21:21:26.893Z,13.33
2019-04-14T21:24:07.030Z,13.27
2019-04-14T21:27:11.628Z,14.40
2019-04-14T21:30:03.804Z,12.80
2019-04-14T21:32:48.588Z,13.73
2019-04-14T21:35:36.696Z,13.10
2019-04-14T21:38:15.021Z,14.37
2019-04-14T21:40:58.012Z,14.20
2019-04-14T21:43:28.277Z,14.65
2019-04-14T21:45:58.514Z,14.07
2019-04-14T21:48:28.799Z,14.43
2019-04-14T21:50:59.281Z,16.13
2019-04-14T21:53:29.850Z,15.00
2019-04-14T21:56:12.462Z,13.53
2019-04-14T21:58:51.104Z,13.97
2019-04-14T22:02:11.321Z,15.30
2019-04-14T22:04:59.635Z,14.30
2019-04-14T22:07:55.881Z,13.53
2019-04-14T22:10:41.417Z,13.87
2019-04-14T22:13:11.911Z,14.00
2019-04-14T22:15:42.311Z,15.30
2019-04-14T22:18:12.595Z,14.63
2019-04-14T22:20:42.884Z,14.53
2019-04-14T22:23:13.589Z,13.73
2019-04-14T22:25:44.007Z,14.30
2019-04-14T22:28:14.344Z,15.40
2019-04-14T22:30:44.488Z,14.17
2019-04-14T22:33:14.863Z,15.70
2019-04-14T22:35:45.070Z,13.73
2019-04-14T22:38:15.722Z,15.57
2019-04-14T22:40:45.900Z,14.30
2019-04-14T22:43:16.297Z,15.40
2019-04-14T22:45:46.475Z,14.87
2019-04-14T22:48:16.675Z,14.23
2019-04-14T22:50:46.954Z,14.87
2019-04-14T22:53:17.181Z,13.90
2019-04-14T22:55:47.421Z,15.63
2019-04-14T22:58:19.141Z,14.60
2019-04-14T23:00:57.086Z,15.00
2019-04-14T23:03:43.692Z,15.10
2019-04-14T23:06:31.720Z,15.17
2019-04-14T23:09:19.941Z,15.60
2019-04-14T23:12:05.534Z,14.83
2019-04-14T23:14:45.650Z,13.70
2019-04-14T23:17:33.890Z,14.43
2019-04-14T23:20:23.143Z,13.60
2019-04-14T23:23:10.492Z,12.33
2019-04-14T23:25:40.656Z,12.23
2019-04-14T23:28:11.069Z,15.30
2019-04-14T23:30:41.406Z,13.80
2019-04-14T23:33:11.529Z,14.17
2019-04-14T23:35:43.433Z,12.37
2019-04-14T23:38:13.755Z,13.10
2019-04-14T23:40:43.915Z,14.10
2019-04-14T23:43:14.418Z,15.70
2019-04-14T23:45:44.685Z,14.33
2019-04-14T23:48:14.823Z,14.57
2019-04-14T23:50:45.432Z,13.77
2019-04-14T23:53:15.802Z,14.27
2019-04-14T23:55:45.986Z,12.93
2019-04-14T23:58:16.293Z,13.47
